Time;durP1;ratioP1;P1;durP2;ratioP2;P2;SDS_P1;SDS_P2;PMS_P1;PMS_P2;Temp;Humidity;BMP_temperature;BMP_pressure;BME280_temperature;BME280_humidity;BME280_pressure;Samples;Min_cycle;Max_cycle;Signal;HPM_P1;HPM_P2
2021/01/05 00:01:06;;;;;;;30.87;15.60;;;;;;;5.77;77.27;98361.33;121685;1151;102077;-70
2021/01/05 00:03:33;;;;;;;29.83;14.80;;;;;;;5.79;77.50;98370.00;119910;1149;104362;-69
2021/01/05 00:06:00;;;;;;;28.37;14.10;;;;;;;5.80;77.66;98362.95;119972;1151;104374;-70
2021/01/05 00:08:27;;;;;;;29.60;15.53;;;;;;;5.83;77.66;98361.88;119939;1151;104379;-70
2021/01/05 00:10:54;;;;;;;27.33;13.60;;;;;;;5.85;77.66;98362.63;119871;1151;104501;-71
2021/01/05 00:13:21;;;;;;;29.37;13.93;;;;;;;5.86;77.31;98367.83;119898;1151;104371;-69
2021/01/05 00:15:48;;;;;;;27.33;12.87;;;;;;;5.87;77.37;98363.38;119842;1151;104528;-69
2021/01/05 00:18:15;;;;;;;25.43;12.40;;;;;;;5.87;77.72;98355.47;119808;1151;104404;-70
2021/01/05 00:20:43;;;;;;;26.15;13.05;;;;;;;5.87;78.03;98361.61;119887;1151;104426;-68
2021/01/05 00:23:16;;;;;;;26.27;12.60;;;;;;;5.86;77.38;98359.91;120390;1150;104462;-70
2021/01/05 00:25:43;;;;;;;25.67;12.07;;;;;;;5.87;77.81;98356.33;119973;1150;104451;-70
2021/01/05 00:28:12;;;;;;;27.93;13.50;;;;;;;5.85;77.73;98352.94;119941;1151;104439;-70
2021/01/05 00:30:40;;;;;;;26.20;11.93;;;;;;;5.87;77.40;98353.69;120004;1149;104500;-69
2021/01/05 00:33:09;;;;;;;26.53;12.00;;;;;;;5.85;77.82;98349.44;119814;1151;104355;-70
2021/01/05 00:35:38;;;;;;;26.17;12.70;;;;;;;5.84;77.38;98342.47;122011;1150;102356;-69
2021/01/05 00:38:07;;;;;;;24.90;11.63;;;;;;;5.82;77.35;98345.22;120269;1151;104384;-69
2021/01/05 00:40:38;;;;;;;25.10;11.53;;;;;;;5.81;77.42;98343.52;120724;1151;104551;-69
2021/01/05 00:43:09;;;;;;;24.83;11.07;;;;;;;5.86;77.48;98343.22;119957;1151;104355;-68
2021/01/05 00:45:38;;;;;;;24.25;10.95;;;;;;;5.86;77.81;98341.44;119949;1149;104388;-70
2021/01/05 00:48:07;;;;;;;23.43;10.80;;;;;;;5.85;77.99;98338.87;120069;1151;104368;-70
2021/01/05 00:50:35;;;;;;;25.07;10.47;;;;;;;5.86;78.21;98344.08;119972;1151;104461;-69
2021/01/05 00:53:02;;;;;;;22.60;10.97;;;;;;;5.89;77.76;98346.52;120932;1151;104493;-70
2021/01/05 00:55:29;;;;;;;22.13;10.07;;;;;;;5.90;77.91;98337.66;119949;1151;104384;-69
2021/01/05 00:57:56;;;;;;;21.67;9.77;;;;;;;5.91;77.74;98338.48;119987;1149;104850;-69
2021/01/05 01:00:31;;;;;;;23.23;10.10;;;;;;;5.90;77.87;98335.02;119917;1151;104879;-69
2021/01/05 01:02:58;;;;;;;20.87;9.63;;;;;;;5.89;77.95;98330.69;119976;1151;104356;-70
2021/01/05 01:05:26;;;;;;;22.53;10.20;;;;;;;5.88;78.22;98323.70;121009;1150;104515;-69
2021/01/05 01:07:53;;;;;;;22.07;10.00;;;;;;;5.90;78.08;98327.09;120123;1151;104394;-71
2021/01/05 01:10:20;;;;;;;18.73;8.83;;;;;;;5.91;77.85;98322.65;120078;1151;104426;-70
2021/01/05 01:12:50;;;;;;;20.03;8.50;;;;;;;5.91;77.70;98322.65;120089;1151;104381;-70
2021/01/05 01:15:20;;;;;;;20.20;8.70;;;;;;;5.91;77.79;98325.29;120037;1151;104455;-70
2021/01/05 01:17:46;;;;;;;18.87;8.50;;;;;;;5.91;78.11;98317.37;120045;1151;104406;-70
2021/01/05 01:20:14;;;;;;;18.33;7.70;;;;;;;5.90;77.63;98311.26;120122;1151;104426;-71
2021/01/05 01:22:45;;;;;;;19.23;8.03;;;;;;;5.93;77.77;98304.92;120088;1151;104382;-69
2021/01/05 01:25:12;;;;;;;19.30;8.40;;;;;;;5.96;78.01;98300.27;121193;1150;104465;-70
2021/01/05 01:27:40;;;;;;;18.37;7.85;;;;;;;5.98;78.03;98291.41;120776;1149;104459;-70
2021/01/05 01:30:08;;;;;;;17.40;6.83;;;;;;;5.95;78.01;98289.83;119942;1151;104561;-70
2021/01/05 01:32:36;;;;;;;16.87;6.53;;;;;;;5.89;77.83;98293.73;119867;1151;104354;-72
2021/01/05 01:35:07;;;;;;;16.23;6.40;;;;;;;5.87;77.62;98284.20;119948;1151;104526;-69
2021/01/05 01:37:34;;;;;;;15.90;6.63;;;;;;;5.87;77.70;98279.78;119988;1151;104430;-70
2021/01/05 01:40:03;;;;;;;14.67;6.23;;;;;;;5.87;78.13;98271.87;119977;1151;104462;-70
2021/01/05 01:42:30;;;;;;;14.13;5.87;;;;;;;5.86;77.90;98275.45;119988;1151;104361;-69
2021/01/05 01:44:57;;;;;;;14.03;5.45;;;;;;;5.83;77.85;98270.37;119936;1151;104470;-69
2021/01/05 01:47:33;;;;;;;13.07;6.10;;;;;;;5.84;77.76;98276.48;119971;1151;104448;-67
2021/01/05 01:50:07;;;;;;;13.37;6.53;;;;;;;5.83;78.20;98266.88;119887;1151;104391;-69
2021/01/05 01:52:56;;;;;;;14.45;5.65;;;;;;;5.81;78.25;98261.71;119989;1151;104462;-70
2021/01/05 01:55:54;;;;;;;14.27;5.70;;;;;;;5.79;77.74;98259.16;120725;1151;104423;-70
2021/01/05 01:58:57;;;;;;;12.27;5.07;;;;;;;5.78;78.02;98259.27;119911;1151;104371;-69
2021/01/05 02:01:39;;;;;;;10.23;4.80;;;;;;;5.77;78.17;98247.02;119950;1151;104453;-70
2021/01/05 02:04:24;;;;;;;11.33;5.20;;;;;;;5.78;78.00;98246.91;120659;1151;104355;-70
2021/01/05 02:07:11;;;;;;;9.83;4.07;;;;;;;5.78;78.49;98246.91;119846;1151;104383;-69
2021/01/05 02:09:46;;;;;;;9.47;4.60;;;;;;;5.77;77.96;98237.30;119890;1151;104502;-68
2021/01/05 02:12:25;;;;;;;10.00;4.63;;;;;;;5.76;77.91;98235.61;120020;1151;104380;-70
2021/01/05 02:15:35;;;;;;;8.53;4.20;;;;;;;5.78;77.98;98231.08;119949;1151;104464;-68
2021/01/05 02:18:26;;;;;;;8.43;3.93;;;;;;;5.75;78.04;98235.72;120590;1151;104428;-69
2021/01/05 02:21:25;;;;;;;7.73;3.70;;;;;;;5.74;78.39;98229.58;119999;1151;104423;-69
2021/01/05 02:24:10;;;;;;;8.67;4.20;;;;;;;5.75;78.37;98231.28;120046;1151;104444;-70
2021/01/05 02:26:51;;;;;;;7.03;3.67;;;;;;;5.76;78.27;98224.22;122240;1151;102162;-69
2021/01/05 02:29:34;;;;;;;6.20;3.50;;;;;;;5.77;78.52;98229.38;120150;1152;104432;-70
2021/01/05 02:32:16;;;;;;;6.33;3.40;;;;;;;5.77;78.31;98226.74;120054;1151;104426;-67
2021/01/05 02:35:16;;;;;;;4.85;2.98;;;;;;;5.77;78.04;98220.63;121197;1150;104467;-69
2021/01/05 02:37:52;;;;;;;6.53;3.27;;;;;;;5.76;78.36;98205.75;120349;1150;104478;-69
2021/01/05 02:40:58;;;;;;;5.07;3.53;;;;;;;5.77;77.97;98210.08;119966;1151;104451;-70
2021/01/05 02:43:53;;;;;;;6.80;3.33;;;;;;;5.74;78.07;98197.92;119959;1151;104466;-69
2021/01/05 02:46:45;;;;;;;8.07;3.43;;;;;;;5.75;78.44;98190.86;120468;1151;104423;-68
2021/01/05 02:49:26;;;;;;;4.73;3.13;;;;;;;5.72;78.48;98191.06;120041;1151;104372;-68
2021/01/05 02:52:34;;;;;;;7.40;3.43;;;;;;;5.71;78.53;98189.38;119999;1151;104426;-70
2021/01/05 02:55:44;;;;;;;6.13;3.03;;;;;;;5.68;78.17;98179.89;120017;1149;104398;-68
2021/01/05 02:58:39;;;;;;;7.73;3.10;;;;;;;5.66;78.25;98179.14;120090;1151;104349;-70
2021/01/05 03:01:28;;;;;;;5.07;2.97;;;;;;;5.65;78.46;98178.28;119955;1151;104625;-70
2021/01/05 03:03:56;;;;;;;5.63;2.83;;;;;;;5.65;78.47;98174.81;119942;1151;104401;-70
2021/01/05 03:06:28;;;;;;;5.70;2.80;;;;;;;5.61;78.56;98168.05;121023;1151;103611;-69
2021/01/05 03:09:31;;;;;;;7.47;2.83;;;;;;;5.60;78.14;98163.72;120032;1151;104372;-69
2021/01/05 03:12:29;;;;;;;4.50;2.93;;;;;;;5.60;78.21;98156.63;119946;1151;104362;-70
2021/01/05 03:15:25;;;;;;;4.73;2.50;;;;;;;5.60;78.38;98151.35;120005;1151;104375;-70
2021/01/05 03:18:24;;;;;;;4.47;2.77;;;;;;;5.58;78.04;98142.70;119927;1151;104520;-68
2021/01/05 03:21:05;;;;;;;5.10;2.70;;;;;;;5.57;78.11;98143.64;119869;1151;104663;-69
2021/01/05 03:23:37;;;;;;;6.03;3.00;;;;;;;5.56;78.35;98136.67;119941;1152;104494;-70
2021/01/05 03:26:08;;;;;;;8.50;3.93;;;;;;;5.54;78.20;98132.47;120017;1151;104529;-70
2021/01/05 03:28:39;;;;;;;6.07;3.33;;;;;;;5.54;78.38;98135.94;119994;1151;104463;-70
2021/01/05 03:31:53;;;;;;;5.77;3.10;;;;;;;5.53;78.69;98133.41;119986;1151;104378;-70
2021/01/05 03:34:20;;;;;;;4.13;2.80;;;;;;;5.52;78.38;98129.91;120275;1151;104554;-68
2021/01/05 03:36:50;;;;;;;4.27;2.43;;;;;;;5.53;78.76;98121.05;119979;1151;104850;-69
2021/01/05 03:39:20;;;;;;;4.03;2.60;;;;;;;5.52;78.50;98124.64;120031;1150;104451;-68
2021/01/05 03:41:47;;;;;;;3.43;1.93;;;;;;;5.48;78.75;98116.09;120205;1151;104388;-69
2021/01/05 03:44:14;;;;;;;4.42;2.30;;;;;;;5.46;78.11;98110.08;120010;1151;104450;-69
2021/01/05 03:46:41;;;;;;;3.50;2.20;;;;;;;5.47;78.07;98116.22;120021;1151;104458;-69
2021/01/05 03:49:11;;;;;;;4.03;2.30;;;;;;;5.47;78.41;98110.94;120321;1151;104465;-68
2021/01/05 03:51:37;;;;;;;3.55;2.20;;;;;;;5.45;78.43;98108.39;119970;1151;104438;-68
2021/01/05 03:54:04;;;;;;;3.23;2.30;;;;;;;5.44;78.55;98106.70;120547;1149;104378;-70
2021/01/05 03:56:31;;;;;;;3.05;2.30;;;;;;;5.43;78.54;98105.01;120761;1151;104350;-69
2021/01/05 03:58:58;;;;;;;3.50;2.30;;;;;;;5.42;78.53;98103.31;119870;1151;104530;-69
2021/01/05 04:01:26;;;;;;;7.13;2.20;;;;;;;5.41;78.69;98098.16;119908;1151;104397;-69
2021/01/05 04:03:53;;;;;;;3.80;2.33;;;;;;;5.40;78.41;98104.38;120576;1151;104431;-70
2021/01/05 04:06:28;;;;;;;2.72;2.15;;;;;;;5.36;78.58;98095.81;119997;1151;104853;-69
2021/01/05 04:08:56;;;;;;;5.53;2.77;;;;;;;5.35;78.40;98110.80;119889;1151;104615;-68
2021/01/05 04:11:24;;;;;;;3.87;2.50;;;;;;;5.35;78.78;98102.03;121245;1151;104453;-70
2021/01/05 04:13:50;;;;;;;3.37;2.33;;;;;;;5.33;78.43;98102.16;120868;1150;104348;-70
2021/01/05 04:16:17;;;;;;;2.33;1.93;;;;;;;5.34;78.59;98098.56;119937;1151;104917;-68
2021/01/05 04:18:46;;;;;;;2.70;2.10;;;;;;;5.34;78.60;98097.70;119871;1151;104652;-68
2021/01/05 04:21:14;;;;;;;5.15;2.40;;;;;;;5.34;78.75;98100.34;120024;1151;104489;-69
2021/01/05 04:23:42;;;;;;;3.40;2.20;;;;;;;5.34;78.52;98095.06;119873;1151;104532;-70
2021/01/05 04:26:09;;;;;;;3.07;2.60;;;;;;;5.34;78.60;98090.66;119936;1151;104420;-68
2021/01/05 04:28:36;;;;;;;3.83;2.20;;;;;;;5.35;78.72;98100.26;119958;1151;104461;-68
2021/01/05 04:31:04;;;;;;;4.67;2.80;;;;;;;5.35;78.70;98096.76;121106;1151;101952;-70
2021/01/05 04:33:34;;;;;;;4.43;2.20;;;;;;;5.34;78.97;98093.30;120036;1151;104496;-68
2021/01/05 04:36:01;;;;;;;3.52;2.17;;;;;;;5.37;78.75;98094.87;119895;1151;104445;-68
2021/01/05 04:38:28;;;;;;;4.13;2.17;;;;;;;5.38;78.83;98096.55;119960;1151;104386;-69
2021/01/05 04:41:02;;;;;;;4.57;2.57;;;;;;;5.41;78.87;98095.52;120023;1151;104394;-69
2021/01/05 04:43:35;;;;;;;3.43;2.50;;;;;;;5.41;78.43;98090.25;119923;1151;104449;-68
2021/01/05 04:46:14;;;;;;;6.27;2.83;;;;;;;5.39;78.38;98092.97;121178;1151;103056;-70
2021/01/05 04:49:08;;;;;;;4.85;2.90;;;;;;;5.38;78.94;98087.81;119979;1149;104453;-71
2021/01/05 04:51:35;;;;;;;4.50;2.80;;;;;;;5.38;78.31;98086.00;119943;1153;104905;-70
2021/01/05 04:54:13;;;;;;;5.80;3.10;;;;;;;5.36;78.99;98079.98;119914;1151;104436;-69
2021/01/05 04:57:04;;;;;;;4.73;2.90;;;;;;;5.37;78.54;98081.68;120108;1151;104383;-69
2021/01/05 04:59:39;;;;;;;4.03;2.93;;;;;;;5.40;79.12;98083.28;119950;1151;104410;-70
2021/01/05 05:02:26;;;;;;;5.53;3.37;;;;;;;5.42;78.61;98074.30;119903;1151;104451;-69
2021/01/05 05:05:02;;;;;;;7.00;3.83;;;;;;;5.44;78.90;98074.22;119949;1151;104393;-69
2021/01/05 05:08:11;;;;;;;4.80;3.13;;;;;;;5.46;78.96;98073.16;119952;1151;104551;-69
2021/01/05 05:10:58;;;;;;;6.05;3.10;;;;;;;5.42;78.57;98071.67;120729;1151;102032;-69
2021/01/05 05:13:32;;;;;;;6.97;3.50;;;;;;;5.40;78.72;98067.46;120586;1150;104457;-67
2021/01/05 05:16:21;;;;;;;7.67;4.00;;;;;;;5.38;78.71;98058.81;119916;1151;105026;-70
2021/01/05 05:19:15;;;;;;;9.30;3.60;;;;;;;5.36;78.66;98066.80;119927;1151;104526;-68
2021/01/05 05:21:51;;;;;;;9.50;4.80;;;;;;;5.35;78.83;98065.98;119928;1151;104528;-69
2021/01/05 05:24:38;;;;;;;11.27;4.13;;;;;;;5.36;78.87;98064.16;120840;1150;104487;-69
2021/01/05 05:27:28;;;;;;;12.13;5.20;;;;;;;5.35;78.53;98065.98;119967;1153;104396;-68
2021/01/05 05:30:05;;;;;;;8.50;3.70;;;;;;;5.37;78.73;98065.86;120769;1154;104412;-69
2021/01/05 05:32:44;;;;;;;8.27;3.70;;;;;;;5.37;79.03;98063.22;120971;1149;104356;-69
2021/01/05 05:35:44;;;;;;;9.67;4.13;;;;;;;5.41;79.04;98055.97;120091;1151;104436;-69
2021/01/05 05:38:54;;;;;;;14.73;5.00;;;;;;;5.44;78.88;98053.95;119970;1151;103133;-69
2021/01/05 05:41:45;;;;;;;11.10;5.30;;;;;;;5.47;79.15;98045.00;119952;1151;104359;-69
2021/01/05 05:44:28;;;;;;;10.17;4.93;;;;;;;5.50;78.77;98055.34;119869;1151;104375;-68
2021/01/05 05:47:08;;;;;;;10.15;4.25;;;;;;;5.54;78.85;98058.61;120031;1151;104453;-68
2021/01/05 05:49:40;;;;;;;10.57;4.90;;;;;;;5.46;79.10;98056.50;120016;1151;104453;-68
2021/01/05 05:52:26;;;;;;;7.63;4.23;;;;;;;5.39;78.81;98048.14;119997;1151;104361;-68
2021/01/05 05:55:00;;;;;;;10.70;4.67;;;;;;;5.42;79.15;98049.74;119959;1151;104492;-67
2021/01/05 05:57:43;;;;;;;10.20;4.67;;;;;;;5.44;79.09;98053.12;119984;1151;104454;-69
2021/01/05 06:00:50;;;;;;;10.72;4.55;;;;;;;5.47;78.94;98056.38;120003;1151;104561;-69
2021/01/05 06:03:23;;;;;;;11.17;4.73;;;;;;;5.48;79.21;98042.25;120623;1150;104491;-69
2021/01/05 06:05:50;;;;;;;12.57;4.97;;;;;;;5.50;79.07;98042.98;120067;1149;104357;-70
2021/01/05 06:08:19;;;;;;;12.30;5.37;;;;;;;5.50;78.68;98042.16;119925;1151;104483;-72
2021/01/05 06:10:47;;;;;;;12.33;4.90;;;;;;;5.50;79.15;98039.52;119931;1151;104516;-68
2021/01/05 06:13:14;;;;;;;10.50;5.17;;;;;;;5.52;78.62;98037.59;119905;1154;104398;-69
2021/01/05 06:15:42;;;;;;;11.73;5.03;;;;;;;5.50;79.09;98042.16;120025;1151;104397;-70
2021/01/05 06:18:13;;;;;;;17.23;6.37;;;;;;;5.50;79.31;98039.52;119946;1151;104377;-67
2021/01/05 06:20:40;;;;;;;15.27;6.10;;;;;;;5.51;79.17;98043.81;120035;1151;104473;-70
2021/01/05 06:23:08;;;;;;;14.70;5.90;;;;;;;5.55;79.25;98037.38;119830;1151;104395;-70
2021/01/05 06:25:37;;;;;;;14.03;5.80;;;;;;;5.56;78.67;98033.80;119803;1151;104452;-69
2021/01/05 06:28:05;;;;;;;17.60;7.23;;;;;;;5.56;78.99;98031.16;120476;1151;104471;-69
2021/01/05 06:30:33;;;;;;;20.40;9.00;;;;;;;5.60;79.38;98024.72;120344;1151;104354;-69
2021/01/05 06:33:00;;;;;;;26.27;13.43;;;;;;;5.65;79.24;98019.15;119925;1151;104531;-69
2021/01/05 06:35:27;;;;;;;24.87;12.00;;;;;;;5.65;79.16;98019.98;120016;1151;104378;-68
2021/01/05 06:37:54;;;;;;;24.13;10.90;;;;;;;5.65;78.72;98017.34;119866;1151;104385;-69
2021/01/05 06:40:26;;;;;;;22.63;8.83;;;;;;;5.64;79.24;98018.28;119948;1151;104355;-69
2021/01/05 06:42:55;;;;;;;22.50;8.07;;;;;;;5.59;78.82;98025.67;119944;1151;104376;-68
2021/01/05 06:45:26;;;;;;;23.60;8.67;;;;;;;5.57;79.12;98021.47;119820;1151;104517;-68
2021/01/05 06:47:54;;;;;;;20.57;8.10;;;;;;;5.58;79.17;98021.34;119851;1151;104377;-70
2021/01/05 06:50:24;;;;;;;18.90;8.03;;;;;;;5.59;78.78;98016.93;120130;1152;104949;-65
2021/01/05 06:52:51;;;;;;;19.93;7.90;;;;;;;5.59;78.87;98015.12;119847;1152;104561;-68
2021/01/05 06:55:19;;;;;;;20.17;8.97;;;;;;;5.58;78.79;98020.52;119816;1153;104529;-70
2021/01/05 06:57:46;;;;;;;20.90;9.57;;;;;;;5.60;79.58;98022.09;119826;1151;104429;-69
2021/01/05 07:00:18;;;;;;;19.87;9.17;;;;;;;5.64;79.04;98020.09;119790;1151;104429;-69
2021/01/05 07:02:46;;;;;;;20.67;9.40;;;;;;;5.64;79.27;98015.65;119977;1149;104432;-71
2021/01/05 07:05:15;;;;;;;22.17;9.97;;;;;;;5.63;79.13;98027.16;119774;1150;104370;-67
2021/01/05 07:07:42;;;;;;;21.47;10.07;;;;;;;5.66;79.11;98019.03;121979;1150;102213;-69
2021/01/05 07:10:10;;;;;;;21.60;10.10;;;;;;;5.70;79.32;98021.45;120671;1150;104470;-69
2021/01/05 07:12:38;;;;;;;20.67;9.03;;;;;;;5.69;79.46;98022.41;121843;1151;102249;-68
2021/01/05 07:15:07;;;;;;;24.80;11.13;;;;;;;5.71;79.03;98010.78;121795;1150;104375;-70
2021/01/05 07:17:35;;;;;;;22.20;9.73;;;;;;;5.75;79.48;98016.70;120078;1151;104378;-69
2021/01/05 07:20:07;;;;;;;21.67;9.97;;;;;;;5.73;79.11;98010.69;120049;1151;104392;-69
2021/01/05 07:22:34;;;;;;;21.93;10.20;;;;;;;5.76;79.33;98015.75;120061;1151;104358;-69
2021/01/05 07:25:05;;;;;;;23.10;10.60;;;;;;;5.79;78.91;98015.55;120097;1150;104505;-69
2021/01/05 07:27:32;;;;;;;21.57;10.13;;;;;;;5.79;78.92;98015.55;120085;1151;104846;-68
2021/01/05 07:29:59;;;;;;;23.30;11.07;;;;;;;5.76;78.96;98013.12;120029;1151;104448;-70
2021/01/05 07:32:26;;;;;;;24.92;10.65;;;;;;;5.76;78.93;98008.67;120024;1151;104381;-70
2021/01/05 07:34:53;;;;;;;25.30;11.20;;;;;;;5.75;78.98;98014.89;120005;1151;104399;-70
2021/01/05 07:37:28;;;;;;;21.70;8.77;;;;;;;5.73;79.10;98010.69;119966;1151;104423;-69
2021/01/05 07:39:56;;;;;;;21.40;9.43;;;;;;;5.71;79.05;98012.59;119870;1151;104454;-68
2021/01/05 07:42:29;;;;;;;23.47;10.53;;;;;;;5.75;79.14;98012.25;119917;1151;104357;-70
2021/01/05 07:44:58;;;;;;;20.63;9.70;;;;;;;5.79;79.21;98010.27;119918;1151;104467;-71
2021/01/05 07:47:37;;;;;;;22.30;8.90;;;;;;;5.80;79.47;98009.31;119848;1151;104356;-70
2021/01/05 07:50:15;;;;;;;22.63;9.63;;;;;;;5.85;79.00;98011.62;119939;1151;104484;-71
2021/01/05 07:52:42;;;;;;;22.47;10.27;;;;;;;5.87;79.13;98009.72;119865;1151;104362;-69
2021/01/05 07:55:23;;;;;;;21.27;10.33;;;;;;;5.90;79.17;98009.50;120440;1151;104519;-69
2021/01/05 07:57:51;;;;;;;21.27;10.10;;;;;;;5.94;79.05;98010.98;119918;1151;104969;-69
2021/01/05 08:00:21;;;;;;;21.55;10.30;;;;;;;5.95;79.17;98002.11;119965;1151;104571;-68
2021/01/05 08:02:49;;;;;;;21.70;10.30;;;;;;;5.98;79.41;98011.59;119818;1151;104460;-69
2021/01/05 08:05:21;;;;;;;20.17;8.50;;;;;;;5.96;79.63;98009.91;119933;1151;104546;-67
2021/01/05 08:07:48;;;;;;;21.53;11.37;;;;;;;5.99;79.66;98005.36;119833;1151;104455;-69
2021/01/05 08:10:41;;;;;;;21.60;10.40;;;;;;;6.00;79.09;98009.69;120692;1150;104426;-69
2021/01/05 08:13:12;;;;;;;21.47;10.67;;;;;;;6.01;79.17;98011.41;119802;1151;104423;-69
2021/01/05 08:15:39;;;;;;;21.97;10.27;;;;;;;6.02;79.69;98007.81;119752;1149;104471;-69
2021/01/05 08:18:07;;;;;;;21.53;9.87;;;;;;;5.98;79.29;98001.89;119987;1151;104471;-69
2021/01/05 08:20:35;;;;;;;24.23;11.63;;;;;;;5.98;78.92;98001.89;120097;1151;104465;-69
2021/01/05 08:23:04;;;;;;;21.87;10.27;;;;;;;6.00;79.44;98002.66;119999;1151;104464;-68
2021/01/05 08:25:32;;;;;;;22.20;10.40;;;;;;;6.01;79.26;98000.84;120060;1151;104529;-70
2021/01/05 08:28:01;;;;;;;23.60;10.80;;;;;;;6.05;79.08;98008.46;120029;1151;105969;-69
2021/01/05 08:30:34;;;;;;;23.03;10.43;;;;;;;6.07;79.52;98006.55;120023;1151;104355;-69
2021/01/05 08:33:03;;;;;;;;;;;;;;;6.10;79.84;98011.62;120038;1151;104445;-69
2021/01/05 08:35:30;;;;;;;22.77;10.53;;;;;;;6.13;79.50;98004.41;120113;1151;104511;-67
2021/01/05 08:37:58;;;;;;;28.20;11.20;;;;;;;6.17;79.71;97993.53;120154;1151;104461;-67
2021/01/05 08:40:28;;;;;;;21.15;9.30;;;;;;;6.22;79.88;97998.47;120038;1151;104510;-68
2021/01/05 08:42:58;;;;;;;22.13;9.50;;;;;;;6.20;79.34;98000.38;120019;1151;104445;-69
2021/01/05 08:45:29;;;;;;;23.60;10.63;;;;;;;6.22;79.07;98003.75;120032;1151;104448;-69
2021/01/05 08:47:56;;;;;;;22.73;9.93;;;;;;;6.23;79.00;98003.66;120038;1151;104453;-69
2021/01/05 08:50:31;;;;;;;20.43;9.30;;;;;;;6.25;79.42;98004.39;120031;1151;104471;-68
2021/01/05 08:53:00;;;;;;;22.00;9.70;;;;;;;6.28;79.55;98005.95;120018;1151;104543;-70
2021/01/05 08:55:28;;;;;;;20.20;9.23;;;;;;;6.30;79.29;98006.69;120050;1151;104564;-68
2021/01/05 08:57:55;;;;;;;20.17;9.60;;;;;;;6.28;79.40;97987.47;120023;1151;104506;-69
2021/01/05 09:00:22;;;;;;;21.93;9.87;;;;;;;6.28;79.67;97986.64;120041;1151;105080;-71
2021/01/05 09:02:50;;;;;;;21.85;10.45;;;;;;;6.29;79.47;97993.61;120052;1151;104353;-69
2021/01/05 09:05:17;;;;;;;21.35;9.48;;;;;;;6.31;79.47;97983.78;120041;1151;104444;-70
2021/01/05 09:07:44;;;;;;;22.80;9.63;;;;;;;6.33;79.78;97995.05;120063;1151;104475;-71
2021/01/05 09:10:20;;;;;;;22.77;10.30;;;;;;;6.34;79.82;98002.02;120030;1151;104455;-71
2021/01/05 09:12:47;;;;;;;24.93;10.90;;;;;;;6.37;79.83;97994.73;120049;1151;104357;-69
2021/01/05 09:15:17;;;;;;;25.10;11.85;;;;;;;6.39;79.11;97990.18;120049;1151;104498;-70
2021/01/05 09:17:45;;;;;;;25.77;12.07;;;;;;;6.43;79.52;97988.14;119987;1151;104387;-69
2021/01/05 09:20:15;;;;;;;21.53;9.73;;;;;;;6.45;79.37;97988.87;120059;1151;104532;-71
2021/01/05 09:22:42;;;;;;;20.00;10.00;;;;;;;6.47;79.11;97991.42;119737;1151;104437;-69
2021/01/05 09:25:10;;;;;;;21.77;10.23;;;;;;;6.48;79.20;97993.11;119944;1150;104387;-70
2021/01/05 09:27:37;;;;;;;20.17;9.10;;;;;;;6.49;79.78;97986.88;119935;1151;104390;-69
2021/01/05 09:30:17;;;;;;;21.47;9.67;;;;;;;6.50;79.07;97985.91;120002;1151;104396;-69
2021/01/05 09:32:45;;;;;;;23.83;10.53;;;;;;;6.52;79.07;97989.29;120035;1151;104385;-71
2021/01/05 09:35:13;;;;;;;24.25;10.30;;;;;;;6.52;79.77;97989.29;119928;1151;104541;-71
2021/01/05 09:37:41;;;;;;;22.53;10.20;;;;;;;6.52;79.19;97984.84;119950;1151;104385;-70
2021/01/05 09:40:09;;;;;;;20.93;9.70;;;;;;;6.55;79.89;97983.75;119922;1151;104359;-70
2021/01/05 09:42:36;;;;;;;30.53;14.70;;;;;;;6.55;79.40;97984.61;119854;1151;104487;-68
2021/01/05 09:45:06;;;;;;;29.57;12.73;;;;;;;6.51;79.65;97977.86;119907;1151;104461;-69
2021/01/05 09:47:34;;;;;;;30.93;13.40;;;;;;;6.50;79.67;97973.53;119900;1151;104487;-73
2021/01/05 09:50:04;;;;;;;29.93;12.73;;;;;;;6.51;79.01;97977.04;119889;1151;104460;-68
2021/01/05 09:52:36;;;;;;;28.63;11.53;;;;;;;6.52;79.78;97971.63;120024;1151;105010;-70
2021/01/05 09:55:05;;;;;;;32.60;12.37;;;;;;;6.53;79.62;97961.88;120098;1150;104506;-69
2021/01/05 09:57:33;;;;;;;30.40;11.43;;;;;;;6.52;79.58;97961.06;120022;1151;104348;-70
2021/01/05 10:00:01;;;;;;;28.53;11.63;;;;;;;6.53;78.84;97959.24;120016;1151;104423;-71
2021/01/05 10:02:28;;;;;;;27.47;10.97;;;;;;;6.52;79.37;97954.95;120070;1151;104380;-70
2021/01/05 10:04:55;;;;;;;25.23;11.25;;;;;;;6.48;79.33;97954.31;119989;1151;104499;-70
2021/01/05 10:07:24;;;;;;;27.77;11.23;;;;;;;6.46;78.94;97958.86;119833;1151;104375;-69
2021/01/05 10:09:52;;;;;;;24.50;10.85;;;;;;;6.45;79.31;97957.18;119786;1151;105004;-70
2021/01/05 10:12:19;;;;;;;25.30;11.53;;;;;;;6.46;79.60;97958.04;119735;1151;104453;-70
2021/01/05 10:14:46;;;;;;;27.30;12.20;;;;;;;6.45;79.79;97954.53;119834;1151;104358;-73
2021/01/05 10:17:12;;;;;;;24.87;9.90;;;;;;;6.46;79.38;97956.22;121013;1151;104549;-69
2021/01/05 10:19:39;;;;;;;23.55;9.40;;;;;;;6.47;79.58;97952.63;119961;1151;104388;-70
2021/01/05 10:22:07;;;;;;;25.90;10.10;;;;;;;6.49;79.63;97956.00;120007;1151;104423;-69
2021/01/05 10:24:36;;;;;;;24.47;9.73;;;;;;;6.50;79.68;97955.05;119786;1151;104383;-70
2021/01/05 10:27:03;;;;;;;23.27;9.50;;;;;;;6.54;79.76;97959.14;119814;1151;104445;-70
2021/01/05 10:29:30;;;;;;;23.83;8.93;;;;;;;6.59;79.09;97955.33;119525;1151;104520;-70
2021/01/05 10:31:56;;;;;;;24.43;8.83;;;;;;;6.61;79.64;97956.88;119626;1151;104465;-72
2021/01/05 10:34:25;;;;;;;19.80;8.73;;;;;;;6.65;79.00;97953.06;119757;1151;105032;-70
2021/01/05 10:37:00;;;;;;;23.13;9.47;;;;;;;6.69;79.34;97956.33;120316;1151;104444;-71
2021/01/05 10:39:29;;;;;;;20.37;8.27;;;;;;;6.69;79.24;97949.23;119519;1151;104425;-71
2021/01/05 10:42:03;;;;;;;22.47;8.60;;;;;;;6.73;79.37;97946.36;119638;1151;104385;-69
2021/01/05 10:44:32;;;;;;;23.83;8.53;;;;;;;6.76;79.25;97948.78;119756;1151;104538;-70
2021/01/05 10:47:01;;;;;;;20.33;8.40;;;;;;;6.76;79.29;97941.67;119875;1151;104359;-69
2021/01/05 10:49:30;;;;;;;26.70;8.80;;;;;;;6.79;79.08;97938.80;120003;1151;104407;-68
2021/01/05 10:52:01;;;;;;;21.70;8.73;;;;;;;6.80;79.75;97945.78;119788;1151;104536;-69
2021/01/05 10:54:29;;;;;;;22.60;9.17;;;;;;;6.83;79.03;97944.72;119844;1151;104821;-69
2021/01/05 10:56:59;;;;;;;24.60;10.13;;;;;;;6.81;78.86;97943.99;120912;1151;104384;-72
2021/01/05 10:59:28;;;;;;;24.90;11.53;;;;;;;6.81;79.64;97942.17;120393;1151;104601;-72
2021/01/05 11:01:57;;;;;;;25.90;10.63;;;;;;;6.82;79.61;97941.22;121825;1150;102564;-73
2021/01/05 11:04:25;;;;;;;26.23;11.33;;;;;;;6.82;78.92;97935.94;120973;1151;104356;-72
2021/01/05 11:06:59;;;;;;;24.77;10.77;;;;;;;6.83;78.81;97932.33;120519;1151;104474;-72
2021/01/05 11:09:28;;;;;;;22.97;10.83;;;;;;;6.80;78.89;97935.20;119992;1151;104393;-71
2021/01/05 11:12:10;;;;;;;28.13;11.63;;;;;;;6.78;79.57;97931.00;120045;1151;104551;-69
2021/01/05 11:14:41;;;;;;;28.75;15.05;;;;;;;6.78;79.36;97934.48;120164;1151;104380;-71
2021/01/05 11:17:10;;;;;;;24.53;11.70;;;;;;;6.80;79.67;97935.20;120060;1151;104502;-70
2021/01/05 11:19:42;;;;;;;22.50;10.83;;;;;;;6.82;79.25;97928.00;120001;1152;104917;-71
2021/01/05 11:22:18;;;;;;;22.55;10.50;;;;;;;6.88;79.80;97929.36;120085;1151;104361;-70
2021/01/05 11:24:50;;;;;;;25.97;12.37;;;;;;;6.91;79.58;97926.48;119981;1154;104918;-71
2021/01/05 11:27:18;;;;;;;24.40;11.93;;;;;;;6.93;79.18;97929.83;120075;1153;104474;-72
2021/01/05 11:29:49;;;;;;;24.53;11.37;;;;;;;6.95;79.12;97933.20;120039;1151;104482;-70
2021/01/05 11:32:20;;;;;;;23.13;11.10;;;;;;;6.99;79.07;97939.11;120005;1151;104377;-71
2021/01/05 11:34:47;;;;;;;24.43;10.37;;;;;;;7.01;79.03;97939.84;119994;1152;104247;-71
2021/01/05 11:37:18;;;;;;;25.17;10.73;;;;;;;7.02;79.71;97938.88;120012;1152;104387;-76
2021/01/05 11:39:49;;;;;;;23.57;10.87;;;;;;;7.06;79.11;97928.90;120040;1151;104465;-71
2021/01/05 11:42:19;;;;;;;21.47;10.03;;;;;;;7.08;79.77;97930.48;120034;1152;104490;-72
2021/01/05 11:44:49;;;;;;;23.20;10.37;;;;;;;7.09;79.10;97931.31;119950;1151;104360;-72